Time;durP1;ratioP1;P1;durP2;ratioP2;P2;SDS_P1;SDS_P2;PMS_P1;PMS_P2;Temp;Humidity;BMP_temperature;BMP_pressure;BME280_temperature;BME280_humidity;BME280_pressure;Samples;Min_cycle;Max_cycle;Signal;HPM_P1;HPM_P2
2022/10/11 00:03:45;;;;;;;6.03;2.83;;;;;;;13.46;55.26;100341.41;7606929;32;40345;-70
2022/10/11 00:08:04;;;;;;;6.25;3.15;;;;;;;14.03;53.83;100333.00;7606397;32;39272;-69
2022/10/11 00:12:20;;;;;;;5.03;2.92;;;;;;;14.13;53.24;100327.47;7605842;32;37117;-69
2022/10/11 00:16:39;;;;;;;8.93;3.40;;;;;;;13.83;53.94;100332.00;7606763;32;40047;-69
2022/10/11 00:21:04;;;;;;;8.32;3.00;;;;;;;14.09;52.81;100335.44;7606853;32;40109;-69
2022/10/11 00:25:20;;;;;;;5.72;3.50;;;;;;;14.16;52.29;100329.66;7617888;32;37072;-69
2022/10/11 00:29:37;;;;;;;7.53;3.28;;;;;;;13.59;54.24;100340.03;7606802;32;37084;-70
2022/10/11 00:33:54;;;;;;;8.63;3.53;;;;;;;13.68;53.87;100329.31;7606786;32;39892;-70
2022/10/11 00:38:10;;;;;;;6.60;2.97;;;;;;;13.92;53.19;100314.94;7606243;32;39941;-69
2022/10/11 00:42:27;;;;;;;5.87;2.65;;;;;;;14.00;52.65;100320.66;7606307;32;38797;-69
2022/10/11 00:46:54;;;;;;;6.82;3.35;;;;;;;14.06;52.25;100322.28;7605640;32;38105;-69
2022/10/11 00:51:24;;;;;;;6.43;3.10;;;;;;;13.69;52.89;100323.56;7607081;32;38343;-69
2022/10/11 00:55:50;;;;;;;9.02;3.60;;;;;;;13.65;53.35;100330.69;7606363;32;40222;-70
2022/10/11 01:00:10;;;;;;;5.70;3.10;;;;;;;13.84;53.14;100325.41;7616784;32;38484;-69
2022/10/11 01:04:26;;;;;;;7.00;3.50;;;;;;;14.00;52.82;100328.87;7606053;32;37113;-69
2022/10/11 01:08:42;;;;;;;7.95;4.00;;;;;;;14.02;53.13;100325.88;7606353;32;39269;-69
2022/10/11 01:13:40;;;;;;;6.37;3.47;;;;;;;13.85;53.98;100316.09;7617385;32;40864;-69
2022/10/11 01:17:59;;;;;;;6.70;3.15;;;;;;;13.56;54.92;100312.38;7615340;32;38826;-69
2022/10/11 01:22:50;;;;;;;6.87;3.37;;;;;;;13.79;53.67;100314.47;7605828;32;36721;-69
2022/10/11 01:27:38;;;;;;;6.70;3.35;;;;;;;13.64;52.80;100314.50;7605176;32;39265;-70
2022/10/11 01:32:25;;;;;;;9.20;3.50;;;;;;;13.56;52.18;100304.16;7598360;32;40799;-69
2022/10/11 01:37:01;;;;;;;11.90;3.45;;;;;;;13.82;50.98;100300.19;7605837;32;38035;-70
2022/10/11 01:41:42;;;;;;;6.45;3.10;;;;;;;13.82;51.90;100297.47;7606145;32;36732;-69
2022/10/11 01:45:59;;;;;;;9.85;3.72;;;;;;;13.64;52.69;100287.13;7605606;32;40047;-69
2022/10/11 01:50:37;;;;;;;6.57;3.17;;;;;;;13.40;52.43;100290.50;7616909;32;39804;-69
2022/10/11 01:55:12;;;;;;;8.52;3.75;;;;;;;13.15;53.64;100292.16;7605588;32;38814;-70
2022/10/11 01:59:38;;;;;;;10.13;3.00;;;;;;;13.36;53.68;100288.59;7605575;32;37221;-70
2022/10/11 02:04:05;;;;;;;8.02;3.25;;;;;;;13.54;52.79;100288.00;7616476;32;40132;-70
2022/10/11 02:08:47;;;;;;;8.82;3.60;;;;;;;13.46;51.49;100286.62;7605732;32;39683;-69
2022/10/11 02:13:31;;;;;;;7.62;3.70;;;;;;;13.53;51.38;100303.59;7615384;32;37603;-69
2022/10/11 02:17:54;;;;;;;7.97;3.85;;;;;;;13.33;53.98;100304.47;7605548;32;38132;-70
2022/10/11 02:22:20;;;;;;;5.20;3.17;;;;;;;13.26;55.75;100297.59;7616194;32;40082;-69
2022/10/11 02:26:38;;;;;;;6.00;3.40;;;;;;;13.48;55.13;100309.09;7605047;32;39918;-69
2022/10/11 02:30:55;;;;;;;8.13;3.60;;;;;;;13.48;55.11;100306.34;7613059;32;38007;-69
2022/10/11 02:35:12;;;;;;;6.90;3.25;;;;;;;13.47;54.68;100312.94;7603893;32;36737;-70
2022/10/11 02:39:38;;;;;;;8.05;3.50;;;;;;;13.11;56.10;100306.69;7604973;32;40124;-69
2022/10/11 02:44:02;;;;;;;9.60;3.53;;;;;;;13.34;55.12;100306.09;7615239;32;39928;-69
2022/10/11 02:48:18;;;;;;;7.10;3.42;;;;;;;13.24;53.73;100299.81;7603898;32;38893;-69
2022/10/11 02:52:34;;;;;;;5.80;3.83;;;;;;;13.24;54.35;100300.63;7615911;32;37819;-69
2022/10/11 02:56:50;;;;;;;7.28;3.78;;;;;;;13.23;55.10;100296.25;7603532;32;39302;-70
2022/10/11 03:01:06;;;;;;;6.35;3.47;;;;;;;13.55;54.53;100294.28;7604387;32;39868;-69
2022/10/11 03:05:22;;;;;;;6.43;3.22;;;;;;;13.30;54.75;100293.25;7603974;32;38866;-70
2022/10/11 03:09:39;;;;;;;6.40;2.97;;;;;;;13.18;54.05;100289.94;7604334;32;37211;-69
2022/10/11 03:13:55;;;;;;;7.37;3.45;;;;;;;13.26;53.82;100287.50;7603592;32;39055;-69
2022/10/11 03:18:11;;;;;;;8.20;3.62;;;;;;;13.29;54.83;100314.31;7602862;32;39895;-70
2022/10/11 03:22:27;;;;;;;7.35;3.60;;;;;;;13.60;54.23;100302.47;7603902;32;37870;-71
2022/10/11 03:26:43;;;;;;;7.55;3.37;;;;;;;13.33;55.50;100314.59;7603933;32;36742;-70
2022/10/11 03:30:59;;;;;;;6.43;3.47;;;;;;;13.52;55.42;100312.94;7603870;32;40080;-69
2022/10/11 03:35:16;;;;;;;10.30;3.97;;;;;;;13.09;57.65;100306.97;7603758;32;40454;-70
2022/10/11 03:39:32;;;;;;;10.02;3.80;;;;;;;13.39;56.62;100312.69;7603400;32;38391;-69
2022/10/11 03:43:48;;;;;;;18.10;3.92;;;;;;;13.64;54.22;100309.88;7603740;32;37579;-70
2022/10/11 03:48:05;;;;;;;7.00;3.40;;;;;;;13.32;53.64;100323.94;7607327;32;39414;-70
2022/10/11 03:52:21;;;;;;;5.20;2.53;;;;;;;13.53;53.55;100325.50;7607411;32;40069;-70
2022/10/11 03:56:37;;;;;;;7.25;3.55;;;;;;;13.66;52.60;100323.25;7607212;32;38556;-70
2022/10/11 04:00:53;;;;;;;6.53;3.08;;;;;;;13.61;52.29;100326.06;7607142;32;37126;-70
2022/10/11 04:05:11;;;;;;;5.85;3.17;;;;;;;13.83;51.42;100322.94;7606982;32;39394;-70
2022/10/11 04:09:27;;;;;;;7.78;3.45;;;;;;;13.68;51.26;100318.34;7607054;32;39642;-70
2022/10/11 04:13:43;;;;;;;7.82;3.78;;;;;;;13.41;51.88;100333.22;7607045;32;38111;-70
2022/10/11 04:18:03;;;;;;;8.00;3.60;;;;;;;13.62;52.79;100327.69;7607054;32;37887;-70
2022/10/11 04:22:19;;;;;;;7.43;3.28;;;;;;;13.63;52.72;100318.37;7606786;32;39076;-69
2022/10/11 04:26:35;;;;;;;6.82;3.42;;;;;;;13.45;53.81;100326.09;7606847;32;40500;-70
2022/10/11 04:30:51;;;;;;;7.95;3.60;;;;;;;13.40;53.99;100322.53;7606778;32;37651;-69
2022/10/11 04:35:08;;;;;;;9.27;3.67;;;;;;;13.34;53.72;100329.94;7606795;32;37338;-70
2022/10/11 04:39:24;;;;;;;11.73;3.72;;;;;;;13.41;54.21;100318.69;7606808;32;39323;-70
2022/10/11 04:43:40;;;;;;;6.12;3.20;;;;;;;13.40;53.81;100320.62;7606553;32;40916;-70
2022/10/11 04:47:56;;;;;;;5.28;3.25;;;;;;;13.31;53.58;100328.59;7606514;32;38141;-69
2022/10/11 04:52:12;;;;;;;6.30;3.50;;;;;;;13.66;53.24;100324.09;7606635;32;37060;-69
2022/10/11 04:56:29;;;;;;;6.78;3.28;;;;;;;13.76;53.38;100327.91;7605906;32;40104;-69
2022/10/11 05:00:45;;;;;;;12.65;3.70;;;;;;;13.79;53.03;100317.19;7606405;32;40531;-69
2022/10/11 05:05:01;;;;;;;11.15;3.58;;;;;;;13.66;53.12;100320.53;7606117;32;37695;-70
2022/10/11 05:09:18;;;;;;;8.27;3.50;;;;;;;13.83;52.82;100322.94;7606262;32;36987;-71
2022/10/11 05:13:34;;;;;;;12.07;3.50;;;;;;;13.22;54.57;100332.94;7606428;32;39482;-71
2022/10/11 05:17:50;;;;;;;20.40;4.03;;;;;;;13.19;55.23;100325.28;7606399;32;40840;-70
2022/10/11 05:22:07;;;;;;;9.40;3.20;;;;;;;13.29;54.94;100330.72;7606125;32;38772;-70
2022/10/11 05:26:26;;;;;;;8.25;3.15;;;;;;;13.43;53.68;100341.97;7606250;32;37138;-70
2022/10/11 05:30:42;;;;;;;8.38;3.55;;;;;;;13.55;53.69;100338.91;7606228;32;39304;-69
2022/10/11 05:34:58;;;;;;;8.25;3.22;;;;;;;13.41;54.64;100348.81;7606203;32;39949;-69
2022/10/11 05:39:14;;;;;;;9.90;3.95;;;;;;;13.23;55.63;100352.91;7605922;32;38788;-69
2022/10/11 05:43:31;;;;;;;6.22;3.40;;;;;;;13.30;55.71;100358.97;7617112;32;37275;-70
2022/10/11 05:47:47;;;;;;;6.68;3.10;;;;;;;13.23;56.31;100352.91;7605932;32;39093;-69
2022/10/11 05:52:05;;;;;;;8.68;3.67;;;;;;;13.37;55.91;100367.72;7606014;32;39750;-71
2022/10/11 05:56:23;;;;;;;6.20;3.25;;;;;;;13.36;55.67;100374.28;7605836;32;37709;-70
2022/10/11 06:00:39;;;;;;;5.62;3.12;;;;;;;13.55;55.21;100365.50;7605797;32;36807;-70
2022/10/11 06:04:55;;;;;;;7.40;3.60;;;;;;;13.33;54.93;100367.47;7605717;32;39449;-70
2022/10/11 06:09:11;;;;;;;6.10;3.30;;;;;;;13.76;53.88;100369.81;7605620;32;40930;-71
2022/10/11 06:13:28;;;;;;;6.55;3.45;;;;;;;14.03;58.44;100371.38;7605499;32;38054;-71
2022/10/11 06:17:45;;;;;;;6.15;2.95;;;;;;;13.75;55.41;100387.38;7605642;32;37123;-76
2022/10/11 06:22:01;;;;;;;6.90;3.33;;;;;;;13.98;55.90;100390.59;7605400;32;39526;-70
2022/10/11 06:26:17;;;;;;;11.40;3.50;;;;;;;14.37;53.82;100395.34;7605331;32;39690;-71
2022/10/11 06:30:34;;;;;;;12.05;4.00;;;;;;;14.47;52.46;100398.03;7616176;32;38057;-71
2022/10/11 06:34:50;;;;;;;16.85;4.47;;;;;;;14.63;52.27;100399.59;7605217;32;37960;-70
2022/10/11 06:39:06;;;;;;;6.72;3.40;;;;;;;14.81;53.16;100391.81;7605129;32;39275;-70
2022/10/11 06:43:24;;;;;;;8.52;4.03;;;;;;;14.95;52.30;100402.97;7604967;32;39971;-69
2022/10/11 06:47:40;;;;;;;9.32;4.50;;;;;;;14.68;52.82;100403.41;7604838;32;38024;-70
2022/10/11 06:51:56;;;;;;;10.98;4.60;;;;;;;15.23;51.50;100415.12;7604806;32;37164;-70
2022/10/11 06:56:12;;;;;;;23.30;4.68;;;;;;;14.91;52.95;100410.94;7604745;32;40178;-71
2022/10/11 07:00:28;;;;;;;10.43;3.83;;;;;;;15.11;52.04;100406.41;7604604;32;39969;-70
2022/10/11 07:04:44;;;;;;;14.82;4.45;;;;;;;15.53;51.54;100405.75;7604084;32;38714;-71
2022/10/11 07:09:00;;;;;;;11.05;5.18;;;;;;;15.96;50.51;100400.38;7604097;32;37163;-70
2022/10/11 07:13:16;;;;;;;9.77;3.75;;;;;;;15.60;50.45;100402.66;7604004;32;39160;-69
2022/10/11 07:17:32;;;;;;;9.27;4.15;;;;;;;15.57;49.98;100404.09;7604132;32;39652;-69
2022/10/11 07:21:49;;;;;;;11.12;4.45;;;;;;;16.22;49.53;100402.00;7606510;32;38795;-69
2022/10/11 07:26:06;;;;;;;10.50;3.90;;;;;;;16.37;49.75;100409.22;7607470;32;37206;-68
2022/10/11 07:30:23;;;;;;;9.23;3.87;;;;;;;16.32;50.61;100408.19;7607429;32;39353;-69
2022/10/11 07:34:39;;;;;;;12.70;4.15;;;;;;;16.27;50.59;100407.44;7607431;32;40135;-70
2022/10/11 07:38:55;;;;;;;10.75;3.42;;;;;;;16.22;50.91;100413.00;7607437;32;37914;-71
2022/10/11 07:43:12;;;;;;;8.38;3.80;;;;;;;16.05;49.65;100425.28;7607199;32;37073;-69
2022/10/11 07:47:28;;;;;;;7.40;3.50;;;;;;;16.45;48.07;100409.41;7607294;32;40088;-69
2022/10/11 07:51:45;;;;;;;7.60;3.62;;;;;;;16.34;47.92;100410.66;7618218;32;40663;-69
2022/10/11 07:56:01;;;;;;;8.95;3.65;;;;;;;16.26;46.33;100411.28;7607084;32;38014;-70
2022/10/11 08:00:18;;;;;;;9.13;4.12;;;;;;;16.34;46.98;100407.91;7607134;32;38107;-70
2022/10/11 08:04:34;;;;;;;13.90;4.45;;;;;;;16.06;48.76;100410.44;7606966;32;40144;-70
2022/10/11 08:08:50;;;;;;;11.48;4.25;;;;;;;15.91;49.68;100416.13;7607099;32;40049;-70
2022/10/11 08:13:06;;;;;;;9.40;3.97;;;;;;;16.40;49.64;100406.72;7606985;32;37933;-70
2022/10/11 08:17:22;;;;;;;8.88;3.85;;;;;;;16.57;48.80;100408.12;7607090;32;37090;-69
2022/10/11 08:21:38;;;;;;;12.32;3.78;;;;;;;16.39;49.21;100413.31;7606620;32;39569;-69
2022/10/11 08:25:57;;;;;;;12.32;3.90;;;;;;;15.37;50.57;100418.81;7606706;32;40029;-68
2022/10/11 08:30:13;;;;;;;11.75;4.15;;;;;;;15.96;48.08;100421.56;7605992;32;37150;-70
2022/10/11 08:34:29;;;;;;;8.27;3.97;;;;;;;16.34;47.65;100416.97;7606284;32;36769;-70
2022/10/11 08:38:45;;;;;;;10.98;3.90;;;;;;;16.65;46.62;100413.78;7606704;32;39878;-70
2022/10/11 08:43:07;;;;;;;7.35;3.75;;;;;;;17.11;45.78;100412.31;7606460;32;39598;-70
2022/10/11 08:47:29;;;;;;;6.87;4.12;;;;;;;17.33;45.53;100416.34;7617811;32;38017;-71
2022/10/11 08:51:51;;;;;;;11.88;4.15;;;;;;;17.50;46.36;100416.59;7617088;32;37733;-70
2022/10/11 08:56:10;;;;;;;12.07;4.40;;;;;;;16.84;47.15;100416.56;7617164;32;38997;-70
2022/10/11 09:00:30;;;;;;;8.35;3.05;;;;;;;17.17;46.31;100422.12;7617097;32;40819;-70
2022/10/11 09:04:49;;;;;;;9.40;4.03;;;;;;;17.98;44.93;100416.28;7616957;32;37931;-69
2022/10/11 09:09:33;;;;;;;7.55;3.70;;;;;;;17.98;46.09;100419.03;7617276;32;37813;-70
2022/10/11 09:13:52;;;;;;;8.07;3.95;;;;;;;17.80;45.27;100417.16;7616823;32;39383;-69
2022/10/11 09:18:21;;;;;;;12.02;4.03;;;;;;;17.38;47.02;100424.53;7606149;32;40836;-70
2022/10/11 09:22:51;;;;;;;10.88;4.10;;;;;;;17.65;47.20;100421.81;7616976;32;38034;-70
2022/10/11 09:27:20;;;;;;;10.52;4.18;;;;;;;17.65;46.65;100421.81;7606134;32;37056;-71
2022/10/11 09:31:57;;;;;;;8.52;3.30;;;;;;;18.66;45.85;100422.03;7614866;32;39752;-70
2022/10/11 09:36:27;;;;;;;9.65;3.70;;;;;;;17.68;45.98;100419.59;7606027;32;41425;-70
2022/10/11 09:40:53;;;;;;;11.25;4.07;;;;;;;18.67;44.63;100425.59;7616939;32;39262;-70
2022/10/11 09:45:20;;;;;;;6.97;3.55;;;;;;;18.87;44.86;100432.66;7615867;32;37524;-70
2022/10/11 09:49:44;;;;;;;16.17;4.50;;;;;;;18.84;45.39;100425.78;7605809;32;40164;-70
2022/10/11 09:54:05;;;;;;;9.57;4.50;;;;;;;19.12;46.03;100437.53;7616207;32;39981;-72
2022/10/11 09:58:28;;;;;;;11.57;4.45;;;;;;;18.62;46.57;100432.06;7605652;32;37973;-71
2022/10/11 10:02:47;;;;;;;12.40;4.60;;;;;;;19.00;46.67;100430.97;7605482;32;37230;-69
2022/10/11 10:07:11;;;;;;;10.80;4.37;;;;;;;19.06;46.18;100430.53;7605601;32;39195;-70
2022/10/11 10:11:34;;;;;;;8.48;4.43;;;;;;;19.20;46.44;100424.13;7605452;32;40336;-70
2022/10/11 10:15:54;;;;;;;9.98;4.87;;;;;;;19.84;44.28;100427.44;7615811;32;38843;-70
2022/10/11 10:20:21;;;;;;;9.57;4.50;;;;;;;20.42;42.13;100417.22;7616206;32;37669;-72
2022/10/11 10:24:40;;;;;;;11.07;4.60;;;;;;;19.56;43.49;100420.41;7615975;32;38983;-71
2022/10/11 10:29:22;;;;;;;14.07;4.75;;;;;;;18.84;45.59;100419.47;7616186;32;39550;-71
2022/10/11 10:33:38;;;;;;;9.70;4.60;;;;;;;19.53;44.95;100416.34;7604400;32;37703;-70
2022/10/11 10:38:28;;;;;;;11.18;4.75;;;;;;;20.52;42.81;100401.41;7605008;32;37835;-70
2022/10/11 10:42:44;;;;;;;9.00;4.55;;;;;;;20.32;43.86;100409.22;7604797;32;39381;-70
2022/10/11 10:47:18;;;;;;;9.65;4.30;;;;;;;21.10;41.73;100400.16;7604784;32;39962;-70
2022/10/11 10:52:11;;;;;;;8.13;4.37;;;;;;;21.33;41.35;100392.44;7604616;32;38750;-70
2022/10/11 10:56:48;;;;;;;;;;;;;;;21.73;39.63;100400.50;7607098;32;37383;-70
2022/10/11 11:01:36;;;;;;;10.63;4.90;;;;;;;22.22;39.49;100383.44;7608022;32;39579;-70
2022/10/11 11:06:00;;;;;;;10.98;5.30;;;;;;;22.86;39.67;100393.47;7607484;32;40035;-69
2022/10/11 11:10:24;;;;;;;8.65;4.95;;;;;;;22.59;39.19;100382.91;7607526;32;37981;-70
2022/10/11 11:14:44;;;;;;;9.05;4.50;;;;;;;22.44;39.39;100385.13;7618596;32;37135;-70
2022/10/11 11:19:42;;;;;;;12.07;4.90;;;;;;;22.26;39.80;100386.37;7607630;32;39318;-70
2022/10/11 11:24:25;;;;;;;12.80;6.53;;;;;;;21.55;41.27;100382.31;7601869;32;39866;-70
2022/10/11 11:29:10;;;;;;;10.15;5.10;;;;;;;22.19;40.93;100384.12;7607547;32;38023;-70
2022/10/11 11:33:35;;;;;;;11.85;6.10;;;;;;;21.97;41.36;100382.44;7607402;32;38023;-70
2022/10/11 11:37:55;;;;;;;185.55;91.03;;;;;;;22.93;39.79;100375.44;7607394;32;39044;-69
2022/10/11 11:42:29;;;;;;;13.15;8.10;;;;;;;23.62;38.99;100371.94;7616951;32;39960;-71
2022/10/11 11:47:19;;;;;;;15.13;7.50;;;;;;;23.37;38.32;100371.09;7607594;32;36281;-70
2022/10/11 11:51:40;;;;;;;17.55;7.90;;;;;;;23.62;38.69;100371.94;7616220;32;37089;-70
2022/10/11 11:56:10;;;;;;;24.17;9.35;;;;;;;23.72;37.42;100367.88;7607268;32;40318;-70
2022/10/11 12:01:05;;;;;;;37.05;24.35;;;;;;;23.55;38.08;100365.31;7617494;32;39871;-70
2022/10/11 12:05:32;;;;;;;16.05;9.10;;;;;;;24.55;36.26;100351.84;7601297;32;37678;-70
2022/10/11 12:10:21;;;;;;;15.10;8.95;;;;;;;24.38;36.05;100347.31;7617921;32;37914;-70
2022/10/11 12:14:39;;;;;;;13.40;8.93;;;;;;;23.33;39.17;100352.66;7603813;32;40561;-70
2022/10/11 12:18:56;;;;;;;18.33;9.13;;;;;;;23.15;38.27;100352.84;7617759;32;39989;-70
2022/10/11 12:23:30;;;;;;;16.05;9.02;;;;;;;23.17;38.23;100356.06;7606561;32;38957;-71
2022/10/11 12:27:48;;;;;;;16.23;8.23;;;;;;;24.30;36.59;100356.63;7607347;32;37432;-70
2022/10/11 12:32:04;;;;;;;13.07;8.25;;;;;;;24.82;35.05;100343.03;7606802;32;40418;-70
2022/10/11 12:36:43;;;;;;;15.88;9.05;;;;;;;23.76;36.88;100343.75;7606687;32;39984;-71
2022/10/11 12:41:08;;;;;;;13.20;8.00;;;;;;;24.93;34.63;100336.59;7606693;32;37977;-71
2022/10/11 12:45:29;;;;;;;15.98;7.90;;;;;;;25.17;34.10;100343.22;7606666;32;37925;-70
2022/10/11 12:50:04;;;;;;;13.50;6.93;;;;;;;24.26;35.14;100341.78;7617743;32;39458;-71
2022/10/11 12:54:28;;;;;;;15.15;6.68;;;;;;;23.80;37.72;100338.31;7606587;32;39956;-70
2022/10/11 12:59:00;;;;;;;17.33;6.70;;;;;;;24.69;35.12;100331.13;7616618;32;38760;-70
2022/10/11 13:03:39;;;;;;;13.27;6.37;;;;;;;24.09;36.44;100336.47;7616507;32;37125;-70
2022/10/11 13:07:58;;;;;;;13.05;6.75;;;;;;;23.14;38.28;100333.72;7606228;32;39459;-71
2022/10/11 13:12:17;;;;;;;10.25;6.70;;;;;;;23.43;37.36;100333.53;7617342;32;39769;-71
2022/10/11 13:16:59;;;;;;;13.77;6.35;;;;;;;23.07;37.91;100328.69;7616369;32;38144;-70
2022/10/11 13:21:26;;;;;;;16.08;7.12;;;;;;;23.68;37.34;100329.94;7606016;32;37337;-71
2022/10/11 13:25:42;;;;;;;19.70;6.35;;;;;;;23.50;37.86;100324.63;7616335;32;39291;-70
2022/10/11 13:30:01;;;;;;;13.62;6.07;;;;;;;24.84;36.72;100329.56;7605811;32;40737;-71
2022/10/11 13:34:17;;;;;;;10.25;6.18;;;;;;;25.08;35.69;100326.62;7616733;32;38205;-71
2022/10/11 13:38:39;;;;;;;15.02;6.40;;;;;;;24.40;36.87;100326.66;7606110;32;37407;-70
2022/10/11 13:42:55;;;;;;;10.98;6.70;;;;;;;23.41;38.87;100337.81;7605982;32;39014;-70
2022/10/11 13:47:17;;;;;;;8.93;5.65;;;;;;;23.80;39.75;100333.56;7606032;32;39972;-70
2022/10/11 13:51:35;;;;;;;8.48;4.70;;;;;;;23.88;38.47;100340.19;7615042;32;37714;-70
2022/10/11 13:56:04;;;;;;;11.05;4.53;;;;;;;24.07;37.38;100333.22;7602364;32;37181;-70
2022/10/11 14:00:21;;;;;;;7.50;3.95;;;;;;;24.25;36.49;100326.25;7605127;32;39609;-71
2022/10/11 14:04:40;;;;;;;9.75;3.90;;;;;;;24.16;36.28;100325.53;7603624;32;39929;-71
2022/10/11 14:08:58;;;;;;;10.55;4.40;;;;;;;24.15;37.78;100329.50;7605142;32;37970;-70
2022/10/11 14:13:39;;;;;;;9.20;4.32;;;;;;;24.18;38.28;100337.12;7605094;32;37139;-71
2022/10/11 14:17:56;;;;;;;8.32;4.20;;;;;;;24.75;35.70;100329.72;7604864;32;39365;-70
2022/10/11 14:22:16;;;;;;;6.85;4.25;;;;;;;25.17;34.46;100325.66;7616246;32;39861;-70
2022/10/11 14:26:39;;;;;;;9.48;3.90;;;;;;;25.21;34.41;100327.38;7604780;32;38879;-70
2022/10/11 14:30:55;;;;;;;;;;;;;;;25.51;32.23;100326.97;7603962;32;36807;-70
2022/10/11 14:35:23;;;;;;;9.55;3.78;;;;;;;25.93;31.41;100322.81;7604852;32;39379;-70
2022/10/11 14:39:40;;;;;;;9.27;4.05;;;;;;;25.79;31.53;100317.69;7604800;32;40031;-71
2022/10/11 14:43:56;;;;;;;10.95;4.07;;;;;;;25.12;32.30;100330.31;7604251;32;38017;-70
2022/10/11 14:48:12;;;;;;;8.20;4.47;;;;;;;25.47;31.98;100323.28;7604757;32;37896;-70
2022/10/11 14:52:32;;;;;;;9.50;3.67;;;;;;;25.52;32.80;100325.00;7604500;32;40204;-71
2022/10/11 14:56:49;;;;;;;7.57;3.60;;;;;;;26.09;31.44;100317.22;7604048;32;40009;-71
2022/10/11 15:01:06;;;;;;;8.07;3.25;;;;;;;25.79;31.05;100329.66;7604192;32;37769;-72
2022/10/11 15:05:24;;;;;;;9.25;3.55;;;;;;;28.28;27.63;100313.62;7603909;32;37158;-71
2022/10/11 15:09:47;;;;;;;8.00;3.70;;;;;;;29.29;26.12;100308.44;7604522;32;39096;-71
2022/10/11 15:14:04;;;;;;;8.80;3.60;;;;;;;28.80;26.72;100316.72;7603682;32;39603;-71
2022/10/11 15:18:20;;;;;;;7.72;3.83;;;;;;;28.48;27.26;100319.91;7603672;32;38832;-71
2022/10/11 15:22:36;;;;;;;7.47;3.83;;;;;;;27.71;28.39;100327.56;7603649;32;37255;-71
2022/10/11 15:26:53;;;;;;;9.65;3.55;;;;;;;26.19;30.86;100337.00;7603483;32;40187;-70
2022/10/11 15:31:12;;;;;;;12.07;4.30;;;;;;;24.90;34.77;100336.50;7603412;32;40831;-71
2022/10/11 15:35:29;;;;;;;8.52;4.03;;;;;;;23.97;36.95;100346.47;7603360;32;38356;-70
2022/10/11 15:39:45;;;;;;;10.02;4.32;;;;;;;23.60;36.82;100353.97;7602794;32;36897;-70
2022/10/11 15:44:01;;;;;;;8.38;4.40;;;;;;;23.53;37.36;100356.50;7606523;32;39992;-71
2022/10/11 15:48:20;;;;;;;8.52;5.03;;;;;;;22.95;37.36;100365.59;7606674;32;40079;-70
2022/10/11 15:52:36;;;;;;;10.82;4.60;;;;;;;22.19;39.44;100372.19;7606641;32;37061;-70
2022/10/11 15:56:52;;;;;;;13.40;4.53;;;;;;;21.79;40.79;100364.25;7606442;32;37339;-70
2022/10/11 16:01:18;;;;;;;10.75;4.35;;;;;;;21.47;42.13;100372.03;7606384;32;39506;-71
2022/10/11 16:05:35;;;;;;;12.75;4.37;;;;;;;21.00;43.37;100379.13;7606946;32;40157;-70
2022/10/11 16:09:51;;;;;;;6.85;4.18;;;;;;;20.91;43.24;100389.41;7605738;32;37618;-70
2022/10/11 16:14:07;;;;;;;12.57;4.57;;;;;;;20.32;44.80;100394.56;7607046;32;37828;-70
2022/10/11 16:18:23;;;;;;;12.30;5.43;;;;;;;20.12;45.06;100409.81;7607176;32;40114;-71
2022/10/11 16:22:39;;;;;;;11.63;5.35;;;;;;;20.21;45.20;100414.25;7606842;32;39588;-72
2022/10/11 16:26:56;;;;;;;15.13;5.57;;;;;;;19.64;46.90;100427.97;7606850;32;38648;-71
2022/10/11 16:31:17;;;;;;;12.75;5.68;;;;;;;19.41;47.50;100425.22;7606939;32;37193;-71
2022/10/11 16:35:33;;;;;;;11.75;6.15;;;;;;;19.55;47.24;100427.91;7606948;32;38475;-71
2022/10/11 16:39:49;;;;;;;8.65;5.10;;;;;;;19.18;48.51;100431.88;7606683;32;39969;-71
2022/10/11 16:44:05;;;;;;;15.15;6.07;;;;;;;19.11;48.79;100429.59;7606354;32;38166;-71
2022/10/11 16:48:21;;;;;;;13.13;6.60;;;;;;;19.14;48.48;100440.84;7606601;32;37904;-71
2022/10/11 16:52:37;;;;;;;11.57;5.70;;;;;;;18.89;48.86;100441.44;7605633;32;39101;-71
2022/10/11 16:56:53;;;;;;;13.68;5.95;;;;;;;19.04;48.11;100448.53;7606501;32;39781;-70
2022/10/11 17:01:10;;;;;;;9.77;5.75;;;;;;;18.70;48.94;100438.81;7606470;32;37785;-71
2022/10/11 17:05:27;;;;;;;10.50;6.65;;;;;;;18.76;49.07;100440.31;7606119;32;37898;-71
2022/10/11 17:09:44;;;;;;;14.05;7.28;;;;;;;18.62;49.36;100453.34;7606467;32;40089;-72
2022/10/11 17:14:02;;;;;;;13.98;7.18;;;;;;;18.65;49.17;100441.69;7606160;32;40807;-70
2022/10/11 17:18:18;;;;;;;14.05;8.02;;;;;;;18.46;49.65;100450.09;7606240;32;38125;-70
2022/10/11 17:22:34;;;;;;;17.50;7.65;;;;;;;18.56;49.34;100453.44;7606261;32;36736;-71
2022/10/11 17:26:50;;;;;;;11.88;7.30;;;;;;;18.37;49.87;100448.06;7606026;32;39269;-70
2022/10/11 17:31:07;;;;;;;18.58;8.35;;;;;;;18.34;50.17;100453.38;7606027;32;40016;-71
2022/10/11 17:35:24;;;;;;;15.15;8.07;;;;;;;18.56;49.51;100453.44;7606129;32;38788;-70
2022/10/11 17:39:40;;;;;;;19.52;7.65;;;;;;;18.24;51.46;100459.91;7606153;32;37060;-70
2022/10/11 17:43:56;;;;;;;12.70;7.53;;;;;;;18.16;52.14;100457.84;7606003;32;39444;-70
2022/10/11 17:48:14;;;;;;;15.15;7.97;;;;;;;17.91;53.29;100461.94;7606099;32;39839;-69
2022/10/11 17:52:30;;;;;;;12.55;7.53;;;;;;;18.04;52.17;100466.66;7605835;32;38036;-69
2022/10/11 17:56:47;;;;;;;12.73;7.85;;;;;;;18.07;52.20;100467.97;7605902;32;37934;-70
2022/10/11 18:01:05;;;;;;;12.07;6.82;;;;;;;18.06;52.00;100453.38;7605905;32;40113;-70
2022/10/11 18:05:22;;;;;;;18.60;6.90;;;;;;;17.88;52.98;100457.84;7605249;32;40026;-70
2022/10/11 18:09:39;;;;;;;15.30;7.00;;;;;;;17.64;53.70;100461.56;7605710;32;38935;-70
2022/10/11 18:13:56;;;;;;;12.27;7.20;;;;;;;17.84;52.64;100463.13;7605706;32;37971;-70
2022/10/11 18:18:14;;;;;;;17.20;7.60;;;;;;;17.99;51.93;100466.75;7605564;32;40106;-69
2022/10/11 18:22:30;;;;;;;13.40;7.68;;;;;;;17.75;52.86;100470.47;7605940;32;38213;-69
2022/10/11 18:26:46;;;;;;;14.02;7.20;;;;;;;17.90;52.03;100471.34;7605282;32;38722;-70
2022/10/11 18:31:07;;;;;;;11.63;6.87;;;;;;;17.58;52.85;100479.31;7605363;32;37276;-71
2022/10/11 18:35:29;;;;;;;12.00;6.93;;;;;;;17.74;52.25;100479.03;7604545;32;39576;-69
2022/10/11 18:39:45;;;;;;;22.75;7.57;;;;;;;17.68;52.45;100480.25;7604341;32;39908;-70
2022/10/11 18:44:04;;;;;;;13.43;6.78;;;;;;;17.48;52.80;100473.97;7604745;32;38712;-69
2022/10/11 18:48:20;;;;;;;13.85;6.10;;;;;;;17.58;52.58;100473.78;7615000;32;37981;-71
2022/10/11 18:52:36;;;;;;;12.73;6.50;;;;;;;17.30;53.53;100474.81;7601312;32;40255;-69
2022/10/11 18:56:59;;;;;;;15.52;6.28;;;;;;;17.01;54.56;100473.88;7602739;32;40003;-70
2022/10/11 19:01:23;;;;;;;10.40;6.18;;;;;;;17.11;54.22;100475.66;7603798;32;38709;-71
2022/10/11 19:05:39;;;;;;;12.75;6.45;;;;;;;17.14;54.08;100477.81;7603786;32;37221;-69
2022/10/11 19:09:56;;;;;;;14.90;6.50;;;;;;;16.81;55.05;100471.37;7603040;32;40128;-70
2022/10/11 19:14:16;;;;;;;10.90;6.40;;;;;;;16.87;54.94;100471.06;7601744;32;40836;-71
2022/10/11 19:18:34;;;;;;;16.15;7.30;;;;;;;16.77;55.19;100479.44;7606623;32;38687;-70
2022/10/11 19:22:53;;;;;;;10.45;6.62;;;;;;;16.66;55.37;100477.91;7607387;32;37174;-70
2022/10/11 19:27:09;;;;;;;19.60;7.03;;;;;;;16.51;55.86;100492.72;7607333;32;39281;-69
2022/10/11 19:31:26;;;;;;;14.65;8.25;;;;;;;16.42;56.27;100486.19;7607526;32;39889;-70
2022/10/11 19:35:53;;;;;;;15.10;7.35;;;;;;;16.31;56.42;100493.75;7606085;32;38074;-69
2022/10/11 19:40:10;;;;;;;18.83;7.57;;;;;;;16.52;55.82;100488.81;7605625;32;37090;-69
2022/10/11 19:44:26;;;;;;;12.63;7.65;;;;;;;16.23;56.74;100497.16;7604290;32;40067;-69
2022/10/11 19:48:43;;;;;;;12.23;7.62;;;;;;;16.22;56.71;100496.34;7603598;32;39926;-69
2022/10/11 19:52:59;;;;;;;13.32;7.57;;;;;;;16.16;56.87;100497.53;7616759;32;37733;-69
2022/10/11 19:57:15;;;;;;;14.82;8.00;;;;;;;15.92;57.57;100500.25;7606760;32;36896;-69
2022/10/11 20:01:32;;;;;;;16.33;7.72;;;;;;;15.86;57.75;100499.47;7599061;32;247724;-70
2022/10/11 20:05:48;;;;;;;18.15;8.15;;;;;;;16.14;56.49;100497.81;7605996;32;39902;-69
2022/10/11 20:10:07;;;;;;;15.20;7.85;;;;;;;16.02;56.62;100502.88;7606512;32;37089;-69